sensor_id;sensor_type;location;lat;lon;timestamp;temperature;humidity
19039;DHT22;9652;49.014;12.052;2024-02-15T00:01:15;11.70;71.80
19039;DHT22;9652;49.014;12.052;2024-02-15T00:03:42;11.70;71.80
19039;DHT22;9652;49.014;12.052;2024-02-15T00:06:10;11.70;71.80
19039;DHT22;9652;49.014;12.052;2024-02-15T00:08:37;11.80;71.90
19039;DHT22;9652;49.014;12.052;2024-02-15T00:11:04;11.80;71.80
19039;DHT22;9652;49.014;12.052;2024-02-15T00:13:33;11.70;71.80
19039;DHT22;9652;49.014;12.052;2024-02-15T00:16:01;11.80;71.80
19039;DHT22;9652;49.014;12.052;2024-02-15T00:18:28;11.80;71.80
19039;DHT22;9652;49.014;12.052;2024-02-15T00:20:56;11.80;71.80
19039;DHT22;9652;49.014;12.052;2024-02-15T00:23:23;11.70;71.80
19039;DHT22;9652;49.014;12.052;2024-02-15T00:25:50;11.80;71.80
19039;DHT22;9652;49.014;12.052;2024-02-15T00:28:17;11.80;71.90
19039;DHT22;9652;49.014;12.052;2024-02-15T00:30:47;11.80;71.90
19039;DHT22;9652;49.014;12.052;2024-02-15T00:33:14;11.80;72.00
19039;DHT22;9652;49.014;12.052;2024-02-15T00:35:41;11.80;71.90
19039;DHT22;9652;49.014;12.052;2024-02-15T00:38:08;11.80;71.90
19039;DHT22;9652;49.014;12.052;2024-02-15T00:40:35;11.80;72.00
19039;DHT22;9652;49.014;12.052;2024-02-15T00:43:03;11.80;72.00
19039;DHT22;9652;49.014;12.052;2024-02-15T00:45:30;11.80;72.00
19039;DHT22;9652;49.014;12.052;2024-02-15T00:47:58;11.80;72.00
19039;DHT22;9652;49.014;12.052;2024-02-15T00:50:25;11.80;72.10
19039;DHT22;9652;49.014;12.052;2024-02-15T00:52:52;11.80;72.20
19039;DHT22;9652;49.014;12.052;2024-02-15T00:55:19;11.80;72.20
19039;DHT22;9652;49.014;12.052;2024-02-15T00:57:46;11.90;72.30
19039;DHT22;9652;49.014;12.052;2024-02-15T01:00:15;11.90;72.30
19039;DHT22;9652;49.014;12.052;2024-02-15T01:02:42;11.90;72.30
19039;DHT22;9652;49.014;12.052;2024-02-15T01:05:10;11.90;72.20
19039;DHT22;9652;49.014;12.052;2024-02-15T01:07:41;11.90;72.20
19039;DHT22;9652;49.014;12.052;2024-02-15T01:10:08;11.90;72.10
19039;DHT22;9652;49.014;12.052;2024-02-15T01:12:35;11.90;72.10
19039;DHT22;9652;49.014;12.052;2024-02-15T01:15:03;11.90;72.00
19039;DHT22;9652;49.014;12.052;2024-02-15T01:17:31;12.00;72.20
19039;DHT22;9652;49.014;12.052;2024-02-15T01:19:58;11.90;72.80
19039;DHT22;9652;49.014;12.052;2024-02-15T01:22:26;11.90;72.00
19039;DHT22;9652;49.014;12.052;2024-02-15T01:24:53;11.90;72.00
19039;DHT22;9652;49.014;12.052;2024-02-15T01:27:22;12.00;72.00
19039;DHT22;9652;49.014;12.052;2024-02-15T01:29:49;11.90;72.00
19039;DHT22;9652;49.014;12.052;2024-02-15T01:32:17;12.00;72.00
19039;DHT22;9652;49.014;12.052;2024-02-15T01:34:44;12.00;72.10
19039;DHT22;9652;49.014;12.052;2024-02-15T01:37:11;12.00;72.00
19039;DHT22;9652;49.014;12.052;2024-02-15T01:39:40;12.00;72.10
19039;DHT22;9652;49.014;12.052;2024-02-15T01:42:07;12.00;72.10
19039;DHT22;9652;49.014;12.052;2024-02-15T01:44:34;12.00;72.00
19039;DHT22;9652;49.014;12.052;2024-02-15T01:47:02;12.00;72.80
19039;DHT22;9652;49.014;12.052;2024-02-15T01:49:30;12.00;72.00
19039;DHT22;9652;49.014;12.052;2024-02-15T01:51:58;12.00;72.00
19039;DHT22;9652;49.014;12.052;2024-02-15T01:54:28;12.00;72.10
19039;DHT22;9652;49.014;12.052;2024-02-15T01:56:57;12.00;72.00
19039;DHT22;9652;49.014;12.052;2024-02-15T01:59:25;12.00;72.10
19039;DHT22;9652;49.014;12.052;2024-02-15T02:01:52;12.00;72.10
19039;DHT22;9652;49.014;12.052;2024-02-15T02:04:19;12.00;72.20
19039;DHT22;9652;49.014;12.052;2024-02-15T02:06:47;12.10;72.20
19039;DHT22;9652;49.014;12.052;2024-02-15T02:09:14;12.10;72.20
19039;DHT22;9652;49.014;12.052;2024-02-15T02:11:45;12.10;72.20
19039;DHT22;9652;49.014;12.052;2024-02-15T02:14:15;12.10;72.10
19039;DHT22;9652;49.014;12.052;2024-02-15T02:16:42;12.10;72.10
19039;DHT22;9652;49.014;12.052;2024-02-15T02:19:12;12.10;72.10
19039;DHT22;9652;49.014;12.052;2024-02-15T02:21:39;12.10;72.00
19039;DHT22;9652;49.014;12.052;2024-02-15T02:24:12;12.10;72.10
19039;DHT22;9652;49.014;12.052;2024-02-15T02:26:42;12.10;72.10
19039;DHT22;9652;49.014;12.052;2024-02-15T02:29:10;12.20;72.20
19039;DHT22;9652;49.014;12.052;2024-02-15T02:31:38;12.20;72.20
19039;DHT22;9652;49.014;12.052;2024-02-15T02:34:05;12.10;72.10
19039;DHT22;9652;49.014;12.052;2024-02-15T02:36:33;12.20;72.10
19039;DHT22;9652;49.014;12.052;2024-02-15T02:39:00;12.20;72.10
19039;DHT22;9652;49.014;12.052;2024-02-15T02:41:27;12.20;72.20
19039;DHT22;9652;49.014;12.052;2024-02-15T02:43:56;12.10;72.20
19039;DHT22;9652;49.014;12.052;2024-02-15T02:46:24;12.10;72.20
19039;DHT22;9652;49.014;12.052;2024-02-15T02:48:51;12.20;72.30
19039;DHT22;9652;49.014;12.052;2024-02-15T02:51:18;12.20;72.20
19039;DHT22;9652;49.014;12.052;2024-02-15T02:53:45;12.20;72.20
19039;DHT22;9652;49.014;12.052;2024-02-15T02:56:12;12.20;72.10
19039;DHT22;9652;49.014;12.052;2024-02-15T02:58:39;12.20;72.20
19039;DHT22;9652;49.014;12.052;2024-02-15T03:01:09;12.10;72.10
19039;DHT22;9652;49.014;12.052;2024-02-15T03:03:37;12.20;72.20
19039;DHT22;9652;49.014;12.052;2024-02-15T03:06:05;12.20;72.30
19039;DHT22;9652;49.014;12.052;2024-02-15T03:08:32;12.20;72.30
19039;DHT22;9652;49.014;12.052;2024-02-15T03:11:00;12.20;72.20
19039;DHT22;9652;49.014;12.052;2024-02-15T03:13:27;12.20;72.20
19039;DHT22;9652;49.014;12.052;2024-02-15T03:15:54;12.20;72.20
19039;DHT22;9652;49.014;12.052;2024-02-15T03:18:25;12.20;72.30
19039;DHT22;9652;49.014;12.052;2024-02-15T03:20:52;12.20;72.30
19039;DHT22;9652;49.014;12.052;2024-02-15T03:23:19;12.20;72.20
19039;DHT22;9652;49.014;12.052;2024-02-15T03:25:46;12.20;72.20
19039;DHT22;9652;49.014;12.052;2024-02-15T03:28:14;12.20;72.40
19039;DHT22;9652;49.014;12.052;2024-02-15T03:30:42;12.20;72.40
19039;DHT22;9652;49.014;12.052;2024-02-15T03:33:10;12.20;72.40
19039;DHT22;9652;49.014;12.052;2024-02-15T03:35:39;12.20;72.30
19039;DHT22;9652;49.014;12.052;2024-02-15T03:38:07;12.20;72.20
19039;DHT22;9652;49.014;12.052;2024-02-15T03:40:34;12.20;72.30
19039;DHT22;9652;49.014;12.052;2024-02-15T03:43:03;12.20;72.20
19039;DHT22;9652;49.014;12.052;2024-02-15T03:45:32;12.20;72.20
19039;DHT22;9652;49.014;12.052;2024-02-15T03:47:59;12.20;72.20
19039;DHT22;9652;49.014;12.052;2024-02-15T03:50:26;12.20;72.20
19039;DHT22;9652;49.014;12.052;2024-02-15T03:52:55;12.20;72.20
19039;DHT22;9652;49.014;12.052;2024-02-15T03:55:23;12.20;72.20
19039;DHT22;9652;49.014;12.052;2024-02-15T03:57:50;12.20;72.20
19039;DHT22;9652;49.014;12.052;2024-02-15T04:00:19;12.20;72.20
19039;DHT22;9652;49.014;12.052;2024-02-15T04:02:47;12.20;72.20
19039;DHT22;9652;49.014;12.052;2024-02-15T04:05:14;12.20;72.20
19039;DHT22;9652;49.014;12.052;2024-02-15T04:07:43;12.20;72.20
19039;DHT22;9652;49.014;12.052;2024-02-15T04:10:12;12.20;72.20
19039;DHT22;9652;49.014;12.052;2024-02-15T04:12:39;12.20;72.20
19039;DHT22;9652;49.014;12.052;2024-02-15T04:15:08;12.20;72.20
19039;DHT22;9652;49.014;12.052;2024-02-15T04:17:39;12.20;72.10
19039;DHT22;9652;49.014;12.052;2024-02-15T04:20:09;12.20;72.20
19039;DHT22;9652;49.014;12.052;2024-02-15T04:22:37;12.20;72.20
19039;DHT22;9652;49.014;12.052;2024-02-15T04:25:05;12.20;72.20
19039;DHT22;9652;49.014;12.052;2024-02-15T04:27:36;12.20;72.40
19039;DHT22;9652;49.014;12.052;2024-02-15T04:30:04;12.20;72.40
19039;DHT22;9652;49.014;12.052;2024-02-15T04:32:35;12.20;72.40
19039;DHT22;9652;49.014;12.052;2024-02-15T04:35:02;12.20;72.40
19039;DHT22;9652;49.014;12.052;2024-02-15T04:37:31;12.20;72.40
19039;DHT22;9652;49.014;12.052;2024-02-15T04:40:00;12.20;72.40
19039;DHT22;9652;49.014;12.052;2024-02-15T04:42:35;12.20;72.40
19039;DHT22;9652;49.014;12.052;2024-02-15T04:45:06;12.20;72.40
19039;DHT22;9652;49.014;12.052;2024-02-15T04:47:35;12.20;72.40
19039;DHT22;9652;49.014;12.052;2024-02-15T04:50:03;12.20;72.40
19039;DHT22;9652;49.014;12.052;2024-02-15T04:52:31;12.20;72.40
19039;DHT22;9652;49.014;12.052;2024-02-15T04:54:58;12.20;72.40
19039;DHT22;9652;49.014;12.052;2024-02-15T04:57:26;12.20;72.30
19039;DHT22;9652;49.014;12.052;2024-02-15T04:59:55;12.20;72.30
19039;DHT22;9652;49.014;12.052;2024-02-15T05:02:22;12.20;72.20
19039;DHT22;9652;49.014;12.052;2024-02-15T05:04:50;12.20;72.20
19039;DHT22;9652;49.014;12.052;2024-02-15T05:07:21;12.10;72.30
19039;DHT22;9652;49.014;12.052;2024-02-15T05:09:48;12.20;72.40
19039;DHT22;9652;49.014;12.052;2024-02-15T05:12:22;12.10;72.50
19039;DHT22;9652;49.014;12.052;2024-02-15T05:14:50;12.10;72.60
19039;DHT22;9652;49.014;12.052;2024-02-15T05:17:20;12.20;72.60
19039;DHT22;9652;49.014;12.052;2024-02-15T05:19:47;12.20;72.60
19039;DHT22;9652;49.014;12.052;2024-02-15T05:22:14;12.20;72.60
19039;DHT22;9652;49.014;12.052;2024-02-15T05:24:41;12.20;72.50
19039;DHT22;9652;49.014;12.052;2024-02-15T05:27:08;12.20;72.60
19039;DHT22;9652;49.014;12.052;2024-02-15T05:29:35;12.20;72.60
19039;DHT22;9652;49.014;12.052;2024-02-15T05:32:05;12.20;72.60
19039;DHT22;9652;49.014;12.052;2024-02-15T05:34:34;12.20;72.60
19039;DHT22;9652;49.014;12.052;2024-02-15T05:37:05;12.10;72.50
19039;DHT22;9652;49.014;12.052;2024-02-15T05:39:33;12.20;72.60
19039;DHT22;9652;49.014;12.052;2024-02-15T05:42:00;12.20;72.60
19039;DHT22;9652;49.014;12.052;2024-02-15T05:44:27;12.20;72.50
19039;DHT22;9652;49.014;12.052;2024-02-15T05:46:54;12.20;72.50
19039;DHT22;9652;49.014;12.052;2024-02-15T05:49:21;12.20;72.60
19039;DHT22;9652;49.014;12.052;2024-02-15T05:51:51;12.10;72.60
19039;DHT22;9652;49.014;12.052;2024-02-15T05:54:19;12.10;72.60
19039;DHT22;9652;49.014;12.052;2024-02-15T05:56:48;12.20;72.70
19039;DHT22;9652;49.014;12.052;2024-02-15T05:59:17;12.20;72.70
19039;DHT22;9652;49.014;12.052;2024-02-15T06:01:46;12.20;72.60
19039;DHT22;9652;49.014;12.052;2024-02-15T06:04:14;12.20;72.60
19039;DHT22;9652;49.014;12.052;2024-02-15T06:06:42;12.20;72.70
19039;DHT22;9652;49.014;12.052;2024-02-15T06:09:10;12.20;72.70
19039;DHT22;9652;49.014;12.052;2024-02-15T06:11:37;12.20;72.70
19039;DHT22;9652;49.014;12.052;2024-02-15T06:14:05;12.20;72.70
19039;DHT22;9652;49.014;12.052;2024-02-15T06:16:33;12.20;72.60
19039;DHT22;9652;49.014;12.052;2024-02-15T06:19:00;12.20;72.60
19039;DHT22;9652;49.014;12.052;2024-02-15T06:21:27;12.20;72.60
19039;DHT22;9652;49.014;12.052;2024-02-15T06:23:54;12.20;72.60
19039;DHT22;9652;49.014;12.052;2024-02-15T06:26:25;12.20;72.60
19039;DHT22;9652;49.014;12.052;2024-02-15T06:28:54;12.20;72.70
19039;DHT22;9652;49.014;12.052;2024-02-15T06:31:39;12.20;72.60
19039;DHT22;9652;49.014;12.052;2024-02-15T06:34:24;12.20;72.60
19039;DHT22;9652;49.014;12.052;2024-02-15T06:37:08;12.20;72.70
19039;DHT22;9652;49.014;12.052;2024-02-15T06:39:53;12.10;72.70
19039;DHT22;9652;49.014;12.052;2024-02-15T06:42:22;12.10;72.70
19039;DHT22;9652;49.014;12.052;2024-02-15T06:44:50;12.10;72.80
19039;DHT22;9652;49.014;12.052;2024-02-15T06:47:17;12.10;72.90
19039;DHT22;9652;49.014;12.052;2024-02-15T06:49:46;12.10;73.00
19039;DHT22;9652;49.014;12.052;2024-02-15T06:52:16;12.10;73.00
19039;DHT22;9652;49.014;12.052;2024-02-15T06:54:44;12.10;73.10
19039;DHT22;9652;49.014;12.052;2024-02-15T06:57:12;12.10;73.10
19039;DHT22;9652;49.014;12.052;2024-02-15T06:59:46;12.20;73.30
19039;DHT22;9652;49.014;12.052;2024-02-15T07:02:14;12.20;73.30
19039;DHT22;9652;49.014;12.052;2024-02-15T07:04:44;12.20;73.30
19039;DHT22;9652;49.014;12.052;2024-02-15T07:07:12;12.20;73.30
19039;DHT22;9652;49.014;12.052;2024-02-15T07:09:40;12.20;73.30
19039;DHT22;9652;49.014;12.052;2024-02-15T07:12:07;12.20;73.30
19039;DHT22;9652;49.014;12.052;2024-02-15T07:14:34;12.30;73.40
19039;DHT22;9652;49.014;12.052;2024-02-15T07:17:03;12.30;73.30
19039;DHT22;9652;49.014;12.052;2024-02-15T07:19:30;12.30;73.30
19039;DHT22;9652;49.014;12.052;2024-02-15T07:22:02;12.40;73.40
19039;DHT22;9652;49.014;12.052;2024-02-15T07:24:30;12.40;73.30
19039;DHT22;9652;49.014;12.052;2024-02-15T07:26:58;12.40;73.40
19039;DHT22;9652;49.014;12.052;2024-02-15T07:29:25;12.50;73.50
19039;DHT22;9652;49.014;12.052;2024-02-15T07:31:53;12.40;73.40
19039;DHT22;9652;49.014;12.052;2024-02-15T07:34:21;12.50;73.50
19039;DHT22;9652;49.014;12.052;2024-02-15T07:36:50;12.50;73.50
19039;DHT22;9652;49.014;12.052;2024-02-15T07:39:18;12.50;73.50
19039;DHT22;9652;49.014;12.052;2024-02-15T07:41:49;12.60;73.50
19039;DHT22;9652;49.014;12.052;2024-02-15T07:44:16;12.60;73.50
19039;DHT22;9652;49.014;12.052;2024-02-15T07:46:44;12.70;73.60
19039;DHT22;9652;49.014;12.052;2024-02-15T07:49:12;12.70;73.40
19039;DHT22;9652;49.014;12.052;2024-02-15T07:51:41;12.70;73.30
19039;DHT22;9652;49.014;12.052;2024-02-15T07:54:09;12.80;73.30
19039;DHT22;9652;49.014;12.052;2024-02-15T07:56:36;12.80;73.30
19039;DHT22;9652;49.014;12.052;2024-02-15T07:59:04;12.80;73.20
19039;DHT22;9652;49.014;12.052;2024-02-15T08:01:31;12.90;73.40
19039;DHT22;9652;49.014;12.052;2024-02-15T08:03:58;12.90;73.40
19039;DHT22;9652;49.014;12.052;2024-02-15T08:06:25;13.00;73.30
19039;DHT22;9652;49.014;12.052;2024-02-15T08:08:55;13.00;73.30
19039;DHT22;9652;49.014;12.052;2024-02-15T08:11:22;13.10;73.20
19039;DHT22;9652;49.014;12.052;2024-02-15T08:13:52;13.10;73.10
19039;DHT22;9652;49.014;12.052;2024-02-15T08:16:23;13.20;73.20
19039;DHT22;9652;49.014;12.052;2024-02-15T08:18:50;13.20;73.00
19039;DHT22;9652;49.014;12.052;2024-02-15T08:21:25;13.20;72.80
19039;DHT22;9652;49.014;12.052;2024-02-15T08:23:56;13.30;72.70
19039;DHT22;9652;49.014;12.052;2024-02-15T08:26:24;13.30;72.70
19039;DHT22;9652;49.014;12.052;2024-02-15T08:28:51;13.30;72.50
19039;DHT22;9652;49.014;12.052;2024-02-15T08:31:18;13.40;72.50
19039;DHT22;9652;49.014;12.052;2024-02-15T08:33:47;13.40;72.50
19039;DHT22;9652;49.014;12.052;2024-02-15T08:36:14;13.50;72.50
19039;DHT22;9652;49.014;12.052;2024-02-15T08:38:41;13.40;72.30
19039;DHT22;9652;49.014;12.052;2024-02-15T08:41:12;13.50;72.30
19039;DHT22;9652;49.014;12.052;2024-02-15T08:43:39;13.50;72.20
19039;DHT22;9652;49.014;12.052;2024-02-15T08:46:07;13.50;72.20
19039;DHT22;9652;49.014;12.052;2024-02-15T08:48:35;13.50;72.30
19039;DHT22;9652;49.014;12.052;2024-02-15T08:51:03;13.60;72.70
19039;DHT22;9652;49.014;12.052;2024-02-15T08:53:31;13.60;72.70
19039;DHT22;9652;49.014;12.052;2024-02-15T08:55:59;13.60;72.80
19039;DHT22;9652;49.014;12.052;2024-02-15T08:58:28;13.70;72.90
19039;DHT22;9652;49.014;12.052;2024-02-15T09:00:55;13.80;72.70
19039;DHT22;9652;49.014;12.052;2024-02-15T09:03:23;13.80;72.40
19039;DHT22;9652;49.014;12.052;2024-02-15T09:05:50;13.80;72.20
19039;DHT22;9652;49.014;12.052;2024-02-15T09:08:18;13.90;72.00
19039;DHT22;9652;49.014;12.052;2024-02-15T09:10:46;13.90;71.80
19039;DHT22;9652;49.014;12.052;2024-02-15T09:13:13;13.90;71.80
19039;DHT22;9652;49.014;12.052;2024-02-15T09:15:42;13.90;71.90
19039;DHT22;9652;49.014;12.052;2024-02-15T09:18:09;13.90;71.90
19039;DHT22;9652;49.014;12.052;2024-02-15T09:20:37;13.90;71.90
19039;DHT22;9652;49.014;12.052;2024-02-15T09:23:10;14.00;72.10
19039;DHT22;9652;49.014;12.052;2024-02-15T09:25:38;14.10;72.20
19039;DHT22;9652;49.014;12.052;2024-02-15T09:28:05;14.10;72.10
19039;DHT22;9652;49.014;12.052;2024-02-15T09:30:32;14.10;72.10
19039;DHT22;9652;49.014;12.052;2024-02-15T09:33:02;14.20;72.20
19039;DHT22;9652;49.014;12.052;2024-02-15T09:35:30;14.20;72.20
19039;DHT22;9652;49.014;12.052;2024-02-15T09:37:58;14.30;72.30
19039;DHT22;9652;49.014;12.052;2024-02-15T09:40:25;14.40;72.40
19039;DHT22;9652;49.014;12.052;2024-02-15T09:42:54;14.40;72.50
19039;DHT22;9652;49.014;12.052;2024-02-15T09:45:22;14.50;72.70
19039;DHT22;9652;49.014;12.052;2024-02-15T09:47:50;14.60;73.40
19039;DHT22;9652;49.014;12.052;2024-02-15T09:50:19;14.70;72.50
19039;DHT22;9652;49.014;12.052;2024-02-15T09:52:49;14.80;72.20
19039;DHT22;9652;49.014;12.052;2024-02-15T09:55:18;14.90;71.90
19039;DHT22;9652;49.014;12.052;2024-02-15T09:57:46;15.00;71.70
19039;DHT22;9652;49.014;12.052;2024-02-15T10:00:14;15.00;71.30
19039;DHT22;9652;49.014;12.052;2024-02-15T10:02:43;15.10;71.40
19039;DHT22;9652;49.014;12.052;2024-02-15T10:05:11;15.00;71.00
19039;DHT22;9652;49.014;12.052;2024-02-15T10:07:40;15.10;71.00
19039;DHT22;9652;49.014;12.052;2024-02-15T10:10:17;15.10;71.00
19039;DHT22;9652;49.014;12.052;2024-02-15T10:12:45;15.10;70.90
19039;DHT22;9652;49.014;12.052;2024-02-15T10:15:28;15.20;71.10
19039;DHT22;9652;49.014;12.052;2024-02-15T10:17:56;15.20;70.80
19039;DHT22;9652;49.014;12.052;2024-02-15T10:20:25;15.20;71.90
19039;DHT22;9652;49.014;12.052;2024-02-15T10:23:09;15.30;71.20
19039;DHT22;9652;49.014;12.052;2024-02-15T10:25:37;15.30;70.90
19039;DHT22;9652;49.014;12.052;2024-02-15T10:28:05;15.40;71.20
19039;DHT22;9652;49.014;12.052;2024-02-15T10:30:34;15.40;71.10
19039;DHT22;9652;49.014;12.052;2024-02-15T10:33:02;15.40;71.00
19039;DHT22;9652;49.014;12.052;2024-02-15T10:35:31;15.50;71.00
19039;DHT22;9652;49.014;12.052;2024-02-15T10:38:07;15.60;71.00
19039;DHT22;9652;49.014;12.052;2024-02-15T10:40:36;15.60;70.70
19039;DHT22;9652;49.014;12.052;2024-02-15T10:43:04;15.70;70.90
19039;DHT22;9652;49.014;12.052;2024-02-15T10:45:34;15.70;70.90
19039;DHT22;9652;49.014;12.052;2024-02-15T10:48:02;15.80;70.80
19039;DHT22;9652;49.014;12.052;2024-02-15T10:50:32;15.90;70.70
19039;DHT22;9652;49.014;12.052;2024-02-15T10:52:59;15.90;70.50
19039;DHT22;9652;49.014;12.052;2024-02-15T10:55:38;16.00;70.40
19039;DHT22;9652;49.014;12.052;2024-02-15T10:58:07;16.00;70.10
19039;DHT22;9652;49.014;12.052;2024-02-15T11:00:35;16.10;70.20
19039;DHT22;9652;49.014;12.052;2024-02-15T11:03:07;16.10;70.10
19039;DHT22;9652;49.014;12.052;2024-02-15T11:05:40;16.10;70.00
19039;DHT22;9652;49.014;12.052;2024-02-15T11:08:10;16.10;70.00
19039;DHT22;9652;49.014;12.052;2024-02-15T11:10:40;16.20;70.10
19039;DHT22;9652;49.014;12.052;2024-02-15T11:13:10;16.20;70.10
19039;DHT22;9652;49.014;12.052;2024-02-15T11:15:46;16.30;70.30
19039;DHT22;9652;49.014;12.052;2024-02-15T11:18:44;16.30;70.10
19039;DHT22;9652;49.014;12.052;2024-02-15T11:21:15;16.40;69.80
19039;DHT22;9652;49.014;12.052;2024-02-15T11:23:43;16.50;70.20
19039;DHT22;9652;49.014;12.052;2024-02-15T11:26:45;16.50;70.10
19039;DHT22;9652;49.014;12.052;2024-02-15T11:29:50;16.60;69.60
19039;DHT22;9652;49.014;12.052;2024-02-15T11:32:37;16.60;69.60
19039;DHT22;9652;49.014;12.052;2024-02-15T11:35:07;16.70;69.60
19039;DHT22;9652;49.014;12.052;2024-02-15T11:37:54;16.80;70.00
19039;DHT22;9652;49.014;12.052;2024-02-15T11:40:24;16.80;69.30
19039;DHT22;9652;49.014;12.052;2024-02-15T11:42:55;16.90;69.60
19039;DHT22;9652;49.014;12.052;2024-02-15T11:45:25;17.00;69.50
19039;DHT22;9652;49.014;12.052;2024-02-15T11:47:54;17.00;69.40
19039;DHT22;9652;49.014;12.052;2024-02-15T11:50:22;17.10;69.40
19039;DHT22;9652;49.014;12.052;2024-02-15T11:52:50;17.10;69.20
19039;DHT22;9652;49.014;12.052;2024-02-15T11:55:19;17.10;69.10
19039;DHT22;9652;49.014;12.052;2024-02-15T11:57:59;17.20;69.10
19039;DHT22;9652;49.014;12.052;2024-02-15T12:00:38;17.20;68.60
19039;DHT22;9652;49.014;12.052;2024-02-15T12:03:24;17.20;69.00
19039;DHT22;9652;49.014;12.052;2024-02-15T12:06:09;17.30;68.90
19039;DHT22;9652;49.014;12.052;2024-02-15T12:08:54;17.30;68.80
19039;DHT22;9652;49.014;12.052;2024-02-15T12:11:39;17.30;68.50
19039;DHT22;9652;49.014;12.052;2024-02-15T12:14:26;17.30;68.50
19039;DHT22;9652;49.014;12.052;2024-02-15T12:17:11;17.40;68.70
19039;DHT22;9652;49.014;12.052;2024-02-15T12:19:59;17.40;68.70
19039;DHT22;9652;49.014;12.052;2024-02-15T12:22:35;17.40;68.70
19039;DHT22;9652;49.014;12.052;2024-02-15T12:25:07;17.50;68.70
19039;DHT22;9652;49.014;12.052;2024-02-15T12:27:38;17.50;68.70
19039;DHT22;9652;49.014;12.052;2024-02-15T12:30:08;17.50;68.60
19039;DHT22;9652;49.014;12.052;2024-02-15T12:32:40;17.60;68.50
19039;DHT22;9652;49.014;12.052;2024-02-15T12:35:11;17.60;68.50
19039;DHT22;9652;49.014;12.052;2024-02-15T12:37:42;17.70;68.20
19039;DHT22;9652;49.014;12.052;2024-02-15T12:40:13;17.70;68.30
19039;DHT22;9652;49.014;12.052;2024-02-15T12:42:42;17.80;68.10
19039;DHT22;9652;49.014;12.052;2024-02-15T12:45:18;17.80;68.00
19039;DHT22;9652;49.014;12.052;2024-02-15T12:47:48;17.80;67.50
19039;DHT22;9652;49.014;12.052;2024-02-15T12:50:17;17.80;67.70
19039;DHT22;9652;49.014;12.052;2024-02-15T12:52:46;17.90;67.70
19039;DHT22;9652;49.014;12.052;2024-02-15T12:55:16;17.90;67.60
19039;DHT22;9652;49.014;12.052;2024-02-15T12:57:46;17.90;67.50
19039;DHT22;9652;49.014;12.052;2024-02-15T13:00:19;17.90;67.60
19039;DHT22;9652;49.014;12.052;2024-02-15T13:02:48;17.90;67.50
19039;DHT22;9652;49.014;12.052;2024-02-15T13:05:17;17.90;67.60
19039;DHT22;9652;49.014;12.052;2024-02-15T13:07:45;18.10;67.60
19039;DHT22;9652;49.014;12.052;2024-02-15T13:10:13;18.10;67.50
19039;DHT22;9652;49.014;12.052;2024-02-15T13:12:41;18.10;67.30
19039;DHT22;9652;49.014;12.052;2024-02-15T13:15:10;18.10;67.10
19039;DHT22;9652;49.014;12.052;2024-02-15T13:17:43;18.10;66.90
19039;DHT22;9652;49.014;12.052;2024-02-15T13:20:11;18.20;66.70
19039;DHT22;9652;49.014;12.052;2024-02-15T13:22:40;18.20;66.90
19039;DHT22;9652;49.014;12.052;2024-02-15T13:25:09;18.10;66.80
19039;DHT22;9652;49.014;12.052;2024-02-15T13:27:37;18.20;66.90
19039;DHT22;9652;49.014;12.052;2024-02-15T13:30:05;18.20;67.00
19039;DHT22;9652;49.014;12.052;2024-02-15T13:32:35;18.20;66.80
19039;DHT22;9652;49.014;12.052;2024-02-15T13:35:07;18.20;66.80
19039;DHT22;9652;49.014;12.052;2024-02-15T13:37:40;18.30;66.60
19039;DHT22;9652;49.014;12.052;2024-02-15T13:40:10;18.30;66.70
19039;DHT22;9652;49.014;12.052;2024-02-15T13:42:42;18.30;66.60
19039;DHT22;9652;49.014;12.052;2024-02-15T13:45:15;18.30;66.40
19039;DHT22;9652;49.014;12.052;2024-02-15T13:47:44;18.30;66.40
19039;DHT22;9652;49.014;12.052;2024-02-15T13:50:17;18.40;66.40
19039;DHT22;9652;49.014;12.052;2024-02-15T13:52:45;18.30;66.20
19039;DHT22;9652;49.014;12.052;2024-02-15T13:55:14;18.30;66.20
19039;DHT22;9652;49.014;12.052;2024-02-15T13:57:43;18.30;66.20
19039;DHT22;9652;49.014;12.052;2024-02-15T14:00:13;18.30;66.20
19039;DHT22;9652;49.014;12.052;2024-02-15T14:02:47;18.30;66.20
19039;DHT22;9652;49.014;12.052;2024-02-15T14:05:16;18.20;66.10
19039;DHT22;9652;49.014;12.052;2024-02-15T14:07:47;18.20;66.10
19039;DHT22;9652;49.014;12.052;2024-02-15T14:10:17;18.20;66.10
19039;DHT22;9652;49.014;12.052;2024-02-15T14:12:46;18.20;66.20
19039;DHT22;9652;49.014;12.052;2024-02-15T14:15:14;18.20;66.30
19039;DHT22;9652;49.014;12.052;2024-02-15T14:17:42;18.20;66.20
19039;DHT22;9652;49.014;12.052;2024-02-15T14:20:13;18.20;66.30
19039;DHT22;9652;49.014;12.052;2024-02-15T14:22:45;18.20;66.40
19039;DHT22;9652;49.014;12.052;2024-02-15T14:25:14;18.20;66.50
19039;DHT22;9652;49.014;12.052;2024-02-15T14:27:42;18.20;66.90
19039;DHT22;9652;49.014;12.052;2024-02-15T14:30:09;18.20;66.90
19039;DHT22;9652;49.014;12.052;2024-02-15T14:32:54;18.30;67.10
19039;DHT22;9652;49.014;12.052;2024-02-15T14:35:30;18.40;67.20
19039;DHT22;9652;49.014;12.052;2024-02-15T14:38:02;18.40;66.90
19039;DHT22;9652;49.014;12.052;2024-02-15T14:40:33;18.40;66.50
19039;DHT22;9652;49.014;12.052;2024-02-15T14:43:01;18.50;66.30
19039;DHT22;9652;49.014;12.052;2024-02-15T14:45:30;18.50;66.00
19039;DHT22;9652;49.014;12.052;2024-02-15T14:47:58;18.50;65.70
19039;DHT22;9652;49.014;12.052;2024-02-15T14:50:25;18.40;65.50
19039;DHT22;9652;49.014;12.052;2024-02-15T14:52:52;18.40;65.40
19039;DHT22;9652;49.014;12.052;2024-02-15T14:55:21;18.40;65.40
19039;DHT22;9652;49.014;12.052;2024-02-15T14:57:48;18.40;65.20
19039;DHT22;9652;49.014;12.052;2024-02-15T15:00:16;18.40;65.20
19039;DHT22;9652;49.014;12.052;2024-02-15T15:02:45;18.30;64.90
19039;DHT22;9652;49.014;12.052;2024-02-15T15:05:14;18.30;64.90
19039;DHT22;9652;49.014;12.052;2024-02-15T15:07:59;18.20;64.90
19039;DHT22;9652;49.014;12.052;2024-02-15T15:10:46;18.10;64.80
19039;DHT22;9652;49.014;12.052;2024-02-15T15:13:32;18.10;64.90
19039;DHT22;9652;49.014;12.052;2024-02-15T15:16:00;18.10;64.90
19039;DHT22;9652;49.014;12.052;2024-02-15T15:18:28;18.00;65.00
19039;DHT22;9652;49.014;12.052;2024-02-15T15:20:57;17.90;65.00
19039;DHT22;9652;49.014;12.052;2024-02-15T15:23:24;17.80;65.00
19039;DHT22;9652;49.014;12.052;2024-02-15T15:25:53;17.80;65.20
19039;DHT22;9652;49.014;12.052;2024-02-15T15:28:20;17.80;65.20
19039;DHT22;9652;49.014;12.052;2024-02-15T15:30:48;17.70;65.20
19039;DHT22;9652;49.014;12.052;2024-02-15T15:33:16;17.70;65.30
19039;DHT22;9652;49.014;12.052;2024-02-15T15:35:44;17.60;65.20
19039;DHT22;9652;49.014;12.052;2024-02-15T15:38:11;17.60;65.20
19039;DHT22;9652;49.014;12.052;2024-02-15T15:40:39;17.50;65.30
19039;DHT22;9652;49.014;12.052;2024-02-15T15:43:08;17.40;65.30
19039;DHT22;9652;49.014;12.052;2024-02-15T15:45:36;17.40;65.40